Time;durP1;ratioP1;P1;durP2;ratioP2;P2;SDS_P1;SDS_P2;PMS_P1;PMS_P2;Temp;Humidity;BMP_temperature;BMP_pressure;BME280_temperature;BME280_humidity;BME280_pressure;Samples;Min_cycle;Max_cycle;Signal;HPM_P1;HPM_P2
2023/06/16 00:01:38;;;;;;;0.85;0.80;;;14.70;87.40;;;;;;5059459;28;20102;-75
2023/06/16 00:04:05;;;;;;;0.30;0.30;;;14.60;87.30;;;;;;5064355;28;20049;-76
2023/06/16 00:06:31;;;;;;;0.50;0.50;;;14.60;88.00;;;;;;5060322;28;20049;-76
2023/06/16 00:08:58;;;;;;;0.28;0.28;;;14.60;89.10;;;;;;5064952;28;20048;-76
2023/06/16 00:11:28;;;;;;;0.30;0.30;;;14.50;88.80;;;;;;5068655;28;20084;-77
2023/06/16 00:13:56;;;;;;;0.40;0.40;;;14.50;89.30;;;;;;5072000;28;20074;-76
2023/06/16 00:16:23;;;;;;;0.20;0.20;;;14.50;89.60;;;;;;5064324;28;20107;-76
2023/06/16 00:18:52;;;;;;;0.22;0.22;;;14.50;89.80;;;;;;5070412;28;20080;-78
2023/06/16 00:21:38;;;;;;;0.32;0.32;;;14.40;90.00;;;;;;5068079;28;20796;-76
2023/06/16 00:24:08;;;;;;;0.40;0.40;;;14.30;90.00;;;;;;5058066;28;20087;-76
2023/06/16 00:26:35;;;;;;;0.25;0.25;;;14.30;90.30;;;;;;5061130;28;20048;-76
2023/06/16 00:29:02;;;;;;;0.47;0.47;;;14.30;90.30;;;;;;5067854;28;20484;-75
2023/06/16 00:31:31;;;;;;;0.28;0.28;;;14.20;90.60;;;;;;5070544;28;20132;-76
2023/06/16 00:34:00;;;;;;;0.43;0.43;;;14.20;90.80;;;;;;5060200;28;20048;-75
2023/06/16 00:36:26;;;;;;;0.40;0.40;;;14.10;90.90;;;;;;5069678;28;20045;-75
2023/06/16 00:38:52;;;;;;;0.82;0.82;;;14.10;90.90;;;;;;5071313;28;20062;-75
2023/06/16 00:41:17;;;;;;;0.40;0.40;;;14.10;91.70;;;;;;5058661;28;20559;-76
2023/06/16 00:43:43;;;;;;;0.65;0.65;;;14.10;91.40;;;;;;5067459;28;20064;-76
2023/06/16 00:46:11;;;;;;;0.68;0.68;;;14.00;91.90;;;;;;5069957;28;20036;-75
2023/06/16 00:48:37;;;;;;;0.63;0.63;;;14.00;92.10;;;;;;5069412;28;20052;-75
2023/06/16 00:51:03;;;;;;;0.50;0.50;;;14.00;92.40;;;;;;5069245;28;20044;-76
2023/06/16 00:53:31;;;;;;;0.50;0.50;;;13.90;92.60;;;;;;5069789;28;20048;-75
2023/06/16 00:55:58;;;;;;;;;;;13.90;92.80;;;;;;5060078;28;20049;-76
2023/06/16 00:58:24;;;;;;;0.30;0.30;;;13.90;93.10;;;;;;5060478;28;19932;-75
2023/06/16 01:00:51;;;;;;;0.38;0.38;;;13.80;93.50;;;;;;5065996;28;20558;-75
2023/06/16 01:03:17;;;;;;;0.38;0.38;;;13.80;93.60;;;;;;5067573;28;20405;-75
2023/06/16 01:05:43;;;;;;;0.30;0.30;;;13.80;93.80;;;;;;5068390;28;20735;-76
2023/06/16 01:08:16;;;;;;;0.30;0.30;;;13.80;94.10;;;;;;5063835;28;20044;-75
2023/06/16 01:10:45;;;;;;;0.30;0.30;;;13.80;94.60;;;;;;5066877;28;20127;-75
2023/06/16 01:13:21;;;;;;;11.32;1.05;;;13.80;94.80;;;;;;5066893;28;20045;-76
2023/06/16 01:15:48;;;;;;;0.40;0.40;;;13.80;94.90;;;;;;5068290;28;20405;-75
2023/06/16 01:18:17;;;;;;;0.50;0.50;;;13.80;95.40;;;;;;5068087;28;20121;-75
2023/06/16 01:20:52;;;;;;;0.43;0.43;;;13.80;95.40;;;;;;5067857;28;20082;-76
2023/06/16 01:24:01;;;;;;;0.40;0.40;;;13.70;95.30;;;;;;5068489;28;20094;-76
2023/06/16 01:26:31;;;;;;;0.30;0.30;;;13.70;95.80;;;;;;5062613;28;20066;-75
2023/06/16 01:29:00;;;;;;;0.28;0.28;;;13.70;95.80;;;;;;5064785;28;20056;-75
2023/06/16 01:31:28;;;;;;;0.30;0.30;;;13.70;96.00;;;;;;5060410;28;20648;-75
2023/06/16 01:33:55;;;;;;;0.20;0.20;;;13.70;96.20;;;;;;5056433;28;20436;-75
2023/06/16 01:36:23;;;;;;;0.20;0.20;;;13.70;96.40;;;;;;5058262;28;20087;-75
2023/06/16 01:38:49;;;;;;;;;;;13.60;96.60;;;;;;5064338;28;20053;-75
2023/06/16 01:41:18;;;;;;;0.30;0.30;;;13.60;97.00;;;;;;5068334;28;19920;-75
2023/06/16 01:43:45;;;;;;;0.20;0.20;;;13.60;97.30;;;;;;5061012;28;20564;-75
2023/06/16 01:46:13;;;;;;;0.30;0.30;;;13.60;97.80;;;;;;5066950;28;20074;-75
2023/06/16 01:48:38;;;;;;;0.40;0.40;;;13.50;97.60;;;;;;5065623;28;20045;-75
2023/06/16 01:51:04;;;;;;;0.20;0.20;;;13.50;98.20;;;;;;5060408;28;20114;-75
2023/06/16 01:53:30;;;;;;;0.20;0.20;;;13.50;98.60;;;;;;5061021;28;20448;-75
2023/06/16 01:55:56;;;;;;;0.35;0.35;;;13.40;98.20;;;;;;5066016;28;20094;-75
2023/06/16 01:58:23;;;;;;;0.47;0.47;;;13.40;98.30;;;;;;5068112;28;20040;-75
2023/06/16 02:00:58;;;;;;;0.27;0.27;;;13.30;98.30;;;;;;5066693;28;20062;-75
2023/06/16 02:03:29;;;;;;;0.28;0.28;;;13.30;98.20;;;;;;5061183;28;20044;-75
2023/06/16 02:05:58;;;;;;;0.43;0.43;;;13.30;98.30;;;;;;5063764;28;20446;-75
2023/06/16 02:08:27;;;;;;;0.43;0.43;;;13.20;98.40;;;;;;5066757;28;20086;-75
2023/06/16 02:10:54;;;;;;;0.20;0.20;;;13.20;98.50;;;;;;5066739;28;20413;-75
2023/06/16 02:13:20;;;;;;;0.30;0.30;;;13.10;98.60;;;;;;5065727;28;20040;-75
2023/06/16 02:15:46;;;;;;;0.50;0.50;;;13.10;98.80;;;;;;5063996;28;20546;-75
2023/06/16 02:18:12;;;;;;;0.30;0.30;;;13.00;98.80;;;;;;5060821;28;20070;-75
2023/06/16 02:20:38;;;;;;;0.43;0.43;;;13.00;99.10;;;;;;5062560;28;20497;-75
2023/06/16 02:23:04;;;;;;;1.15;0.88;;;13.00;99.40;;;;;;5055235;28;20045;-75
2023/06/16 02:25:31;;;;;;;0.40;0.40;;;12.90;99.70;;;;;;5058563;28;20158;-75
2023/06/16 02:27:56;;;;;;;0.30;0.30;;;12.90;99.80;;;;;;5061908;28;20056;-75
2023/06/16 02:30:22;;;;;;;0.40;0.40;;;12.90;99.90;;;;;;5067891;28;20041;-75
2023/06/16 02:32:48;;;;;;;0.28;0.28;;;12.90;99.90;;;;;;5068794;28;20102;-75
2023/06/16 02:35:15;;;;;;;0.22;0.22;;;12.80;99.90;;;;;;5060259;28;20152;-75
2023/06/16 02:37:42;;;;;;;0.50;0.50;;;12.80;99.90;;;;;;5067204;28;20051;-76
2023/06/16 02:40:08;;;;;;;0.75;0.75;;;12.70;99.90;;;;;;5056481;28;20045;-75
2023/06/16 02:42:34;;;;;;;0.60;0.60;;;12.70;99.90;;;;;;5066764;28;20056;-75
2023/06/16 02:45:00;;;;;;;0.43;0.43;;;12.70;99.90;;;;;;5057082;28;20091;-75
2023/06/16 02:47:26;;;;;;;0.30;0.30;;;12.70;99.90;;;;;;5067530;28;20124;-75
2023/06/16 02:49:54;;;;;;;0.63;0.63;;;12.60;99.90;;;;;;5060127;28;20028;-75
2023/06/16 02:52:20;;;;;;;0.30;0.30;;;12.60;99.90;;;;;;5056205;28;20088;-75
2023/06/16 02:54:46;;;;;;;0.68;0.65;;;12.60;99.90;;;;;;5065371;28;20049;-75
2023/06/16 02:57:12;;;;;;;0.25;0.25;;;12.60;99.90;;;;;;5068484;28;20051;-75
2023/06/16 02:59:37;;;;;;;0.30;0.30;;;12.50;99.90;;;;;;5062379;28;20132;-75
2023/06/16 03:02:03;;;;;;;0.40;0.40;;;12.50;99.90;;;;;;5064824;28;20045;-75
2023/06/16 03:04:29;;;;;;;0.60;0.60;;;12.40;99.90;;;;;;5063468;28;20107;-75
2023/06/16 03:06:57;;;;;;;0.57;0.57;;;12.40;99.90;;;;;;5061990;28;20059;-76
2023/06/16 03:09:24;;;;;;;0.40;0.40;;;12.40;99.90;;;;;;5063299;28;20055;-75
2023/06/16 03:11:49;;;;;;;0.43;0.40;;;12.40;99.90;;;;;;5067295;28;20052;-76
2023/06/16 03:14:16;;;;;;;0.40;0.40;;;12.40;99.90;;;;;;5062616;28;20063;-78
2023/06/16 03:16:42;;;;;;;0.82;0.82;;;12.30;99.90;;;;;;5063007;28;20143;-75
2023/06/16 03:19:07;;;;;;;1.83;0.77;;;12.30;99.90;;;;;;5056994;28;20166;-75
2023/06/16 03:21:33;;;;;;;0.47;0.47;;;12.30;99.90;;;;;;5066833;28;20049;-75
2023/06/16 03:23:58;;;;;;;0.30;0.30;;;12.30;99.90;;;;;;5068174;28;20567;-75
2023/06/16 03:26:25;;;;;;;0.47;0.47;;;12.30;99.90;;;;;;5057815;28;20044;-76
2023/06/16 03:28:50;;;;;;;0.38;0.35;;;12.30;99.90;;;;;;5067147;28;20817;-75
2023/06/16 03:31:17;;;;;;;0.63;0.63;;;12.30;99.90;;;;;;5066928;28;20048;-75
2023/06/16 03:33:43;;;;;;;0.60;0.60;;;12.30;99.90;;;;;;5058220;28;20064;-75
2023/06/16 03:36:09;;;;;;;0.77;0.52;;;12.30;99.90;;;;;;5066993;28;20040;-75
2023/06/16 03:38:35;;;;;;;0.30;0.30;;;12.30;99.90;;;;;;5067865;28;20040;-75
2023/06/16 03:41:00;;;;;;;0.30;0.30;;;12.30;99.90;;;;;;5064994;28;20482;-75
2023/06/16 03:43:26;;;;;;;0.30;0.30;;;12.40;99.90;;;;;;5069281;28;20386;-75
2023/06/16 03:45:51;;;;;;;0.57;0.57;;;12.40;99.90;;;;;;5051871;28;20037;-75
2023/06/16 03:48:18;;;;;;;0.30;0.30;;;12.40;99.90;;;;;;5051455;28;20482;-76
2023/06/16 03:50:44;;;;;;;0.50;0.50;;;12.40;99.90;;;;;;5060609;28;20056;-75
2023/06/16 03:53:09;;;;;;;0.52;0.52;;;12.40;99.90;;;;;;5068584;28;20041;-75
2023/06/16 03:55:35;;;;;;;0.50;0.50;;;12.50;99.90;;;;;;5067169;28;20045;-75
2023/06/16 03:58:01;;;;;;;0.30;0.30;;;12.50;99.90;;;;;;5068427;28;20040;-75
2023/06/16 04:00:27;;;;;;;0.38;0.38;;;12.60;99.90;;;;;;5066317;28;20052;-76
2023/06/16 04:02:52;;;;;;;0.30;0.30;;;12.70;99.90;;;;;;5064300;28;20093;-76
2023/06/16 04:05:19;;;;;;;0.30;0.30;;;12.70;99.90;;;;;;5061417;28;20123;-76
2023/06/16 04:07:45;;;;;;;2.80;0.50;;;12.80;99.90;;;;;;5060374;28;20071;-76
2023/06/16 04:10:10;;;;;;;0.60;0.60;;;12.90;99.90;;;;;;5066259;28;20558;-76
2023/06/16 04:12:36;;;;;;;0.20;0.20;;;13.10;99.90;;;;;;5064268;28;20059;-75
2023/06/16 04:15:03;;;;;;;0.30;0.30;;;13.20;99.90;;;;;;5050873;28;20401;-75
2023/06/16 04:17:29;;;;;;;0.65;0.65;;;13.30;99.90;;;;;;5056860;28;20114;-82
2023/06/16 04:19:57;;;;;;;0.30;0.30;;;13.40;99.90;;;;;;5049328;28;20716;-80
2023/06/16 04:22:22;;;;;;;0.30;0.30;;;13.60;99.90;;;;;;5058080;28;20052;-80
2023/06/16 04:24:49;;;;;;;0.80;0.80;;;13.70;99.90;;;;;;5052489;28;20056;-80
2023/06/16 04:27:15;;;;;;;0.57;0.35;;;13.80;99.90;;;;;;5061930;28;20121;-80
2023/06/16 04:29:42;;;;;;;0.90;0.75;;;13.90;99.90;;;;;;5070069;28;20163;-80
2023/06/16 04:32:13;;;;;;;0.32;0.32;;;14.10;99.90;;;;;;5070537;28;20048;-80
2023/06/16 04:34:40;;;;;;;0.30;0.30;;;14.10;99.90;;;;;;5063045;28;20041;-80
2023/06/16 04:37:06;;;;;;;0.22;0.22;;;14.20;99.90;;;;;;5065773;28;20052;-80
2023/06/16 04:39:32;;;;;;;0.30;0.30;;;14.30;99.90;;;;;;5066547;28;20048;-80
2023/06/16 04:41:57;;;;;;;0.50;0.50;;;14.30;99.90;;;;;;5069463;28;20041;-79
2023/06/16 04:44:23;;;;;;;0.40;0.40;;;14.40;99.90;;;;;;5066743;28;20489;-79
2023/06/16 04:46:49;;;;;;;0.30;0.30;;;14.40;99.90;;;;;;5063643;28;20051;-80
2023/06/16 04:49:15;;;;;;;0.40;0.40;;;14.40;99.90;;;;;;5071272;28;20138;-79
2023/06/16 04:51:40;;;;;;;0.50;0.50;;;14.50;99.90;;;;;;5063722;28;20060;-80
2023/06/16 04:54:06;;;;;;;0.43;0.43;;;14.50;99.90;;;;;;5069490;28;20051;-79
2023/06/16 04:56:32;;;;;;;0.40;0.40;;;14.60;99.90;;;;;;5068579;28;20044;-79
2023/06/16 04:58:57;;;;;;;0.32;0.32;;;14.60;99.90;;;;;;5063931;28;20405;-76
2023/06/16 05:01:26;;;;;;;0.45;0.45;;;14.70;99.90;;;;;;5056046;28;20114;-76
2023/06/16 05:03:53;;;;;;;1.30;0.73;;;14.80;99.90;;;;;;5072161;28;20044;-76
2023/06/16 05:06:18;;;;;;;0.40;0.40;;;14.80;99.90;;;;;;5069508;28;20133;-76
2023/06/16 05:08:44;;;;;;;0.98;0.75;;;14.90;99.90;;;;;;5056189;28;20095;-76
2023/06/16 05:11:10;;;;;;;0.40;0.40;;;15.00;99.90;;;;;;5052185;28;20149;-77
2023/06/16 05:13:35;;;;;;;0.60;0.60;;;15.10;99.90;;;;;;5062823;28;20055;-76
2023/06/16 05:16:01;;;;;;;0.35;0.35;;;15.20;99.90;;;;;;5063224;28;20135;-77
2023/06/16 05:18:27;;;;;;;0.57;0.57;;;15.20;99.90;;;;;;5065280;28;20170;-76
2023/06/16 05:20:52;;;;;;;0.38;0.38;;;15.30;99.90;;;;;;5054533;28;20493;-78
2023/06/16 05:23:18;;;;;;;0.45;0.35;;;15.40;99.90;;;;;;5069417;28;20508;-76
2023/06/16 05:25:45;;;;;;;0.47;0.47;;;15.50;99.90;;;;;;5069924;28;20045;-77
2023/06/16 05:28:11;;;;;;;0.80;0.80;;;15.60;99.90;;;;;;5052484;28;20056;-76
2023/06/16 05:30:39;;;;;;;0.30;0.30;;;15.60;99.90;;;;;;5066870;28;20049;-77
2023/06/16 05:33:05;;;;;;;0.30;0.30;;;15.70;99.90;;;;;;5065903;28;20052;-76
2023/06/16 05:35:31;;;;;;;1.00;0.88;;;15.80;99.90;;;;;;5066240;28;20044;-77
2023/06/16 05:37:56;;;;;;;0.85;0.85;;;15.80;99.90;;;;;;5070159;28;20158;-76
2023/06/16 05:40:22;;;;;;;0.55;0.55;;;15.90;99.90;;;;;;5070284;28;20121;-76
2023/06/16 05:42:48;;;;;;;0.40;0.40;;;16.00;99.90;;;;;;5070181;28;20218;-76
2023/06/16 05:45:14;;;;;;;2.50;1.00;;;16.10;99.90;;;;;;5070976;28;20059;-76
2023/06/16 05:47:39;;;;;;;0.40;0.40;;;16.20;99.90;;;;;;5066935;28;20681;-76
2023/06/16 05:50:05;;;;;;;0.40;0.40;;;16.30;99.90;;;;;;5067130;28;20880;-75
2023/06/16 05:52:31;;;;;;;0.40;0.40;;;16.40;99.90;;;;;;5069420;28;20040;-76
2023/06/16 05:54:57;;;;;;;0.30;0.30;;;16.60;99.90;;;;;;5061823;28;20580;-76
2023/06/16 05:57:24;;;;;;;0.57;0.57;;;16.80;99.90;;;;;;5054486;28;20051;-76
2023/06/16 05:59:50;;;;;;;0.50;0.50;;;16.90;99.90;;;;;;5058934;28;20165;-76
2023/06/16 06:02:17;;;;;;;0.40;0.40;;;17.10;99.90;;;;;;5065322;28;20115;-76
2023/06/16 06:04:42;;;;;;;0.90;0.85;;;17.20;99.90;;;;;;5067127;28;20059;-76
2023/06/16 06:07:08;;;;;;;0.73;0.73;;;17.30;99.90;;;;;;5064151;28;20049;-76
2023/06/16 06:09:33;;;;;;;0.75;0.68;;;17.40;99.90;;;;;;5068743;28;20047;-76
2023/06/16 06:11:59;;;;;;;0.82;0.82;;;17.60;99.90;;;;;;5064495;28;20080;-76
2023/06/16 06:14:25;;;;;;;0.40;0.40;;;17.80;99.90;;;;;;5067279;28;20072;-76
2023/06/16 06:16:50;;;;;;;0.88;0.73;;;17.90;99.90;;;;;;5058572;28;20051;-77
2023/06/16 06:19:16;;;;;;;0.40;0.40;;;18.00;99.90;;;;;;5065558;28;20044;-77
2023/06/16 06:21:42;;;;;;;0.40;0.40;;;18.20;99.90;;;;;;5060866;28;20127;-76
2023/06/16 06:24:08;;;;;;;0.55;0.55;;;18.30;99.90;;;;;;5056617;28;20056;-77
2023/06/16 06:26:34;;;;;;;0.82;0.82;;;18.50;99.90;;;;;;5056285;28;20072;-76
2023/06/16 06:28:59;;;;;;;0.30;0.30;;;18.70;99.90;;;;;;5064491;28;20048;-76
2023/06/16 06:31:25;;;;;;;0.93;0.93;;;18.80;99.90;;;;;;5064305;28;20417;-75
2023/06/16 06:33:51;;;;;;;0.40;0.40;;;18.90;99.90;;;;;;5067597;28;20049;-76
2023/06/16 06:36:26;;;;;;;0.43;0.43;;;19.10;99.90;;;;;;5066006;28;20131;-76
2023/06/16 06:38:53;;;;;;;1.60;0.73;;;19.40;99.90;;;;;;5063731;28;20413;-76
2023/06/16 06:41:19;;;;;;;1.55;0.90;;;19.70;99.90;;;;;;5060577;28;20053;-76
2023/06/16 06:43:45;;;;;;;0.73;0.73;;;20.00;99.90;;;;;;5059435;28;20052;-75
2023/06/16 06:46:11;;;;;;;0.55;0.47;;;20.30;99.90;;;;;;5064568;28;20044;-75
2023/06/16 06:48:37;;;;;;;1.27;1.25;;;20.70;99.90;;;;;;5067059;28;20579;-75
2023/06/16 06:51:03;;;;;;;0.60;0.60;;;21.00;99.90;;;;;;5051993;28;20032;-76
2023/06/16 06:53:29;;;;;;;0.63;0.63;;;21.40;99.90;;;;;;5059854;28;20036;-76
2023/06/16 06:55:55;;;;;;;0.75;0.75;;;21.70;99.90;;;;;;5063647;28;20056;-76
2023/06/16 06:58:20;;;;;;;0.52;0.52;;;22.10;99.10;;;;;;5063098;28;20100;-76
2023/06/16 07:00:46;;;;;;;0.57;0.52;;;22.30;98.00;;;;;;5068449;28;20052;-76
2023/06/16 07:03:12;;;;;;;1.00;0.60;;;22.60;98.20;;;;;;5064012;28;20410;-76
2023/06/16 07:05:38;;;;;;;2.15;1.17;;;22.90;96.60;;;;;;5060705;28;20045;-76
2023/06/16 07:08:04;;;;;;;0.30;0.30;;;23.30;96.40;;;;;;5058118;28;20056;-76
2023/06/16 07:10:32;;;;;;;1.17;0.73;;;23.60;95.10;;;;;;5058159;28;20417;-75
2023/06/16 07:12:58;;;;;;;0.50;0.50;;;23.80;93.90;;;;;;5059502;28;20048;-76
2023/06/16 07:15:24;;;;;;;0.50;0.50;;;24.00;93.50;;;;;;5062018;28;20048;-76
2023/06/16 07:17:50;;;;;;;2.10;0.93;;;24.30;92.30;;;;;;5065459;28;20047;-76
2023/06/16 07:20:16;;;;;;;0.40;0.40;;;24.50;91.90;;;;;;5044028;28;20485;-76
2023/06/16 07:22:45;;;;;;;0.47;0.47;;;24.70;91.20;;;;;;5069056;28;20056;-76
2023/06/16 07:25:11;;;;;;;0.80;0.50;;;25.00;91.10;;;;;;5064382;28;20573;-75
2023/06/16 07:27:37;;;;;;;0.65;0.65;;;25.30;90.00;;;;;;5060138;28;20060;-76
2023/06/16 07:30:04;;;;;;;0.80;0.52;;;25.40;88.90;;;;;;5061769;28;20052;-76
2023/06/16 07:32:30;;;;;;;0.90;0.90;;;25.70;87.20;;;;;;5058638;28;20043;-76
2023/06/16 07:34:56;;;;;;;1.05;0.95;;;25.90;86.60;;;;;;5061308;28;20041;-76
2023/06/16 07:37:21;;;;;;;0.40;0.40;;;26.10;85.50;;;;;;5065253;28;20044;-76
2023/06/16 07:39:47;;;;;;;0.43;0.43;;;26.30;83.60;;;;;;5063688;28;20048;-76
2023/06/16 07:42:13;;;;;;;0.40;0.40;;;26.50;83.80;;;;;;5065750;28;20229;-76
2023/06/16 07:44:39;;;;;;;0.70;0.70;;;26.70;82.10;;;;;;5060792;28;20139;-76
2023/06/16 07:47:06;;;;;;;0.43;0.43;;;27.00;81.00;;;;;;5064170;28;20052;-76
2023/06/16 07:49:31;;;;;;;0.70;0.70;;;27.20;80.20;;;;;;5060862;28;20037;-76
2023/06/16 07:51:57;;;;;;;0.63;0.63;;;27.30;79.20;;;;;;5061862;28;20056;-76
2023/06/16 07:54:23;;;;;;;0.50;0.50;;;27.40;77.90;;;;;;5061986;28;20090;-76
2023/06/16 07:56:50;;;;;;;1.80;1.30;;;27.50;77.70;;;;;;5058148;28;20040;-77
2023/06/16 07:59:16;;;;;;;0.50;0.50;;;27.60;76.20;;;;;;5059049;28;20639;-76
2023/06/16 08:01:42;;;;;;;0.30;0.30;;;27.70;74.90;;;;;;5063868;28;20127;-77
2023/06/16 08:04:08;;;;;;;2.45;1.20;;;27.70;75.50;;;;;;5071484;28;20086;-77
2023/06/16 08:06:34;;;;;;;0.50;0.50;;;27.80;75.70;;;;;;5074986;28;20076;-77
2023/06/16 08:08:59;;;;;;;0.43;0.43;;;27.90;74.60;;;;;;5069360;28;20041;-77
2023/06/16 08:11:25;;;;;;;1.23;0.73;;;28.10;74.10;;;;;;5064124;28;20065;-77
2023/06/16 08:13:52;;;;;;;0.50;0.50;;;28.30;73.30;;;;;;5068651;28;20652;-78
2023/06/16 08:16:18;;;;;;;0.63;0.63;;;28.50;72.80;;;;;;5064048;28;20052;-78
2023/06/16 08:18:43;;;;;;;0.45;0.45;;;28.60;70.20;;;;;;5066107;28;20373;-80
2023/06/16 08:21:09;;;;;;;0.32;0.32;;;28.80;71.40;;;;;;5071131;28;20397;-77
2023/06/16 08:23:34;;;;;;;0.50;0.50;;;29.00;71.40;;;;;;5069788;28;20048;-77
2023/06/16 08:26:01;;;;;;;0.50;0.50;;;29.10;70.10;;;;;;5066523;28;20045;-78
2023/06/16 08:28:27;;;;;;;0.30;0.30;;;29.20;69.90;;;;;;5066719;28;20059;-77
2023/06/16 08:30:53;;;;;;;0.95;0.95;;;29.00;68.10;;;;;;5063877;28;20049;-77
2023/06/16 08:33:19;;;;;;;0.52;0.52;;;28.80;69.20;;;;;;5064347;28;20123;-78
2023/06/16 08:35:45;;;;;;;0.65;0.65;;;28.80;70.60;;;;;;5062290;28;20049;-76
2023/06/16 08:38:17;;;;;;;1.20;1.13;;;29.00;69.70;;;;;;5068751;28;20151;-77
2023/06/16 08:40:45;;;;;;;0.50;0.50;;;29.10;68.30;;;;;;5058938;28;20049;-79
2023/06/16 08:43:12;;;;;;;1.50;1.40;;;29.20;68.20;;;;;;5061872;28;20040;-79
2023/06/16 08:45:39;;;;;;;0.47;0.47;;;29.40;67.40;;;;;;5049666;28;20580;-80
2023/06/16 08:48:05;;;;;;;1.27;1.27;;;29.40;66.00;;;;;;5064133;28;20077;-78
2023/06/16 08:50:32;;;;;;;0.73;0.73;;;29.40;66.80;;;;;;5065528;28;20136;-80
2023/06/16 08:53:00;;;;;;;1.05;0.82;;;29.50;65.70;;;;;;5066386;28;20158;-80
2023/06/16 08:55:29;;;;;;;0.93;0.93;;;29.30;66.10;;;;;;5060359;28;20048;-80
2023/06/16 08:57:55;;;;;;;0.30;0.30;;;29.20;66.10;;;;;;5064359;28;20048;-79
2023/06/16 09:00:22;;;;;;;0.43;0.43;;;29.40;66.20;;;;;;5067999;28;20447;-80
2023/06/16 09:02:49;;;;;;;1.23;0.80;;;29.60;66.30;;;;;;5059937;28;20052;-79
2023/06/16 09:05:18;;;;;;;0.40;0.40;;;29.70;65.70;;;;;;5063538;28;20060;-80
2023/06/16 09:07:44;;;;;;;0.80;0.80;;;29.80;64.50;;;;;;5062585;28;20337;-79
2023/06/16 09:10:10;;;;;;;0.52;0.52;;;29.60;64.70;;;;;;5060260;28;20530;-79
2023/06/16 09:12:36;;;;;;;0.43;0.43;;;29.40;65.90;;;;;;5064733;28;20119;-79
2023/06/16 09:15:09;;;;;;;0.47;0.47;;;29.50;65.80;;;;;;5053457;28;20116;-79
2023/06/16 09:17:39;;;;;;;0.98;0.98;;;29.60;66.10;;;;;;5058756;28;20056;-80
2023/06/16 09:20:12;;;;;;;0.98;0.98;;;29.70;66.30;;;;;;5063069;28;20075;-80
2023/06/16 09:22:39;;;;;;;1.52;1.42;;;29.70;66.20;;;;;;5064977;28;20048;-80
2023/06/16 09:25:05;;;;;;;0.30;0.30;;;30.00;65.20;;;;;;5068153;28;20061;-80
2023/06/16 09:27:45;;;;;;;1.50;1.40;;;30.20;63.80;;;;;;5059237;28;20523;-80
2023/06/16 09:30:18;;;;;;;0.65;0.60;;;30.40;63.80;;;;;;5052173;28;20098;-80
2023/06/16 09:32:45;;;;;;;1.15;1.05;;;30.60;61.90;;;;;;5063915;28;20048;-80
2023/06/16 09:35:22;;;;;;;0.70;0.70;;;30.70;62.20;;;;;;5058871;28;20504;-80
2023/06/16 09:37:51;;;;;;;;;;;30.70;61.50;;;;;;5048835;28;20056;-78
2023/06/16 09:40:19;;;;;;;1.83;1.63;;;30.60;61.80;;;;;;5066431;28;19975;-78
2023/06/16 09:42:48;;;;;;;0.90;0.90;;;30.20;59.80;;;;;;5057117;28;20060;-81
2023/06/16 09:45:16;;;;;;;0.63;0.63;;;30.20;61.10;;;;;;5072998;28;20055;-80
2023/06/16 09:47:47;;;;;;;0.47;0.47;;;30.20;59.40;;;;;;5061837;28;20052;-81
2023/06/16 09:50:17;;;;;;;0.50;0.50;;;30.40;58.40;;;;;;5063291;28;20048;-80
2023/06/16 09:52:44;;;;;;;0.70;0.70;;;30.50;60.00;;;;;;5059900;28;20497;-81
2023/06/16 09:55:11;;;;;;;1.63;1.52;;;30.70;59.10;;;;;;5062961;28;20045;-80
2023/06/16 09:57:39;;;;;;;1.63;1.52;;;30.90;58.60;;;;;;5068514;28;20103;-81
2023/06/16 10:00:15;;;;;;;0.93;0.93;;;30.90;57.20;;;;;;5062652;28;20729;-81
2023/06/16 10:02:42;;;;;;;4.75;0.63;;;30.80;56.80;;;;;;5059941;28;20040;-81
2023/06/16 10:05:10;;;;;;;0.82;0.82;;;30.60;57.10;;;;;;5065055;28;20044;-80
2023/06/16 10:07:38;;;;;;;;;;;30.70;57.40;;;;;;5063448;28;20048;-80
2023/06/16 10:10:08;;;;;;;1.30;1.20;;;31.00;55.40;;;;;;5064696;28;21110;-80
2023/06/16 10:12:35;;;;;;;1.20;1.20;;;31.10;54.50;;;;;;5064916;28;20093;-80
2023/06/16 10:15:02;;;;;;;;;;;31.40;55.20;;;;;;5060808;28;20056;-80
2023/06/16 10:17:30;;;;;;;;;;;31.50;53.40;;;;;;5060979;28;19944;-80
2023/06/16 10:19:56;;;;;;;1.30;1.30;;;31.50;52.50;;;;;;5062066;28;20015;-80
2023/06/16 10:22:22;;;;;;;1.80;1.70;;;31.30;51.70;;;;;;5061146;28;20125;-81
2023/06/16 10:24:48;;;;;;;1.02;1.02;;;31.00;51.80;;;;;;5055541;28;20048;-80
2023/06/16 10:27:15;;;;;;;1.35;1.30;;;31.10;52.70;;;;;;5056511;28;20109;-80
2023/06/16 10:29:41;;;;;;;0.35;0.35;;;31.20;52.00;;;;;;5064033;28;20064;-79
2023/06/16 10:32:08;;;;;;;1.23;1.23;;;31.30;51.50;;;;;;5059210;28;20039;-79
2023/06/16 10:34:35;;;;;;;0.40;0.40;;;31.40;49.70;;;;;;5065884;28;20055;-79
2023/06/16 10:37:02;;;;;;;0.50;0.50;;;31.70;49.60;;;;;;5061725;28;20323;-79
2023/06/16 10:39:28;;;;;;;0.40;0.40;;;31.90;51.00;;;;;;5061757;28;20055;-79
2023/06/16 10:41:55;;;;;;;0.45;0.45;;;32.00;50.30;;;;;;5063292;28;20049;-80
2023/06/16 10:44:29;;;;;;;0.68;0.68;;;31.80;49.40;;;;;;5068001;28;20064;-79
2023/06/16 10:47:12;;;;;;;1.88;0.95;;;31.50;50.40;;;;;;5067752;28;20093;-80
2023/06/16 10:50:02;;;;;;;0.60;0.60;;;31.20;50.40;;;;;;5068644;28;20090;-79
2023/06/16 10:52:28;;;;;;;0.55;0.55;;;31.00;50.30;;;;;;5063131;28;20044;-79
2023/06/16 10:54:55;;;;;;;0.57;0.57;;;30.80;51.30;;;;;;5059196;28;20051;-80
2023/06/16 10:57:27;;;;;;;0.68;0.68;;;30.90;51.50;;;;;;5062024;28;20123;-79
2023/06/16 11:00:11;;;;;;;1.08;0.98;;;31.00;51.80;;;;;;5067773;28;20467;-79
2023/06/16 11:02:48;;;;;;;0.68;0.68;;;31.20;50.80;;;;;;5063810;28;20182;-81
2023/06/16 11:05:15;;;;;;;0.98;0.98;;;31.30;49.90;;;;;;5064623;28;20044;-78
2023/06/16 11:07:40;;;;;;;1.30;1.20;;;31.20;49.50;;;;;;5057706;28;20049;-78
2023/06/16 11:10:18;;;;;;;0.57;0.57;;;31.30;50.60;;;;;;5066535;28;20059;-79
2023/06/16 11:12:48;;;;;;;0.75;0.75;;;31.60;49.70;;;;;;5064359;28;20044;-81
2023/06/16 11:15:14;;;;;;;2.13;1.33;;;31.80;50.10;;;;;;5051008;28;20036;-79
2023/06/16 11:17:43;;;;;;;0.33;0.33;;;32.00;49.50;;;;;;5052259;28;20152;-80
2023/06/16 11:20:11;;;;;;;0.82;0.82;;;32.20;49.30;;;;;;5051697;28;20057;-80
2023/06/16 11:22:36;;;;;;;1.58;1.45;;;32.30;49.30;;;;;;5050937;28;20057;-80
2023/06/16 11:25:03;;;;;;;0.60;0.60;;;32.00;49.00;;;;;;5053419;28;20044;-80
2023/06/16 11:27:30;;;;;;;0.75;0.75;;;31.90;48.70;;;;;;5052225;28;20057;-80
2023/06/16 11:29:57;;;;;;;;;;;32.00;48.60;;;;;;5056729;28;20045;-80
2023/06/16 11:32:28;;;;;;;1.45;1.33;;;32.20;48.20;;;;;;5052595;28;19938;-81
2023/06/16 11:34:55;;;;;;;0.57;0.57;;;32.50;48.50;;;;;;5054974;28;20711;-80
2023/06/16 11:37:37;;;;;;;0.50;0.50;;;32.60;45.90;;;;;;5057855;28;20044;-80
2023/06/16 11:40:05;;;;;;;0.52;0.52;;;32.60;46.90;;;;;;5052440;28;20580;-80
2023/06/16 11:42:31;;;;;;;0.80;0.80;;;32.50;47.20;;;;;;5062800;28;20157;-79
2023/06/16 11:44:57;;;;;;;0.40;0.40;;;32.50;46.20;;;;;;5060209;28;20530;-79
2023/06/16 11:47:23;;;;;;;1.83;1.73;;;32.10;46.00;;;;;;5058650;28;20483;-80
2023/06/16 11:49:50;;;;;;;1.42;1.38;;;31.80;46.20;;;;;;5058632;28;20056;-80
2023/06/16 11:52:16;;;;;;;1.83;1.73;;;31.40;47.40;;;;;;5058529;28;20131;-80
2023/06/16 11:54:42;;;;;;;0.52;0.52;;;31.20;48.10;;;;;;5060343;28;20139;-81
2023/06/16 11:57:08;;;;;;;0.70;0.70;;;31.10;47.80;;;;;;5063639;28;20064;-79
2023/06/16 11:59:34;;;;;;;0.68;0.68;;;31.10;47.50;;;;;;5060606;28;20112;-78
2023/06/16 12:02:03;;;;;;;0.30;0.30;;;31.30;48.10;;;;;;5056469;28;20049;-78
2023/06/16 12:04:31;;;;;;;1.02;1.02;;;31.60;47.30;;;;;;5058143;28;20123;-79
2023/06/16 12:06:57;;;;;;;0.82;0.82;;;31.90;47.10;;;;;;5058804;28;20053;-79
2023/06/16 12:09:24;;;;;;;0.67;0.67;;;32.00;46.90;;;;;;5057609;28;20068;-78
2023/06/16 12:11:52;;;;;;;0.50;0.50;;;31.80;47.00;;;;;;5058305;28;20497;-79
2023/06/16 12:14:21;;;;;;;1.75;1.05;;;31.70;47.40;;;;;;5061085;28;20433;-77
2023/06/16 12:16:53;;;;;;;1.15;1.00;;;31.80;46.90;;;;;;5062758;28;20044;-78
2023/06/16 12:19:20;;;;;;;0.73;0.65;;;31.50;46.50;;;;;;5057837;28;20488;-79
2023/06/16 12:21:58;;;;;;;0.57;0.57;;;31.60;47.20;;;;;;5056353;28;20048;-80
2023/06/16 12:24:25;;;;;;;0.60;0.60;;;31.80;47.00;;;;;;5058714;28;20472;-77
2023/06/16 12:26:53;;;;;;;0.45;0.45;;;31.90;46.60;;;;;;5057867;28;20493;-77
2023/06/16 12:29:20;;;;;;;1.35;1.23;;;31.90;46.30;;;;;;5059630;28;20448;-78
2023/06/16 12:32:05;;;;;;;0.95;0.95;;;31.80;47.00;;;;;;5058572;28;20064;-79
2023/06/16 12:34:33;;;;;;;0.88;0.68;;;31.80;45.90;;;;;;5056701;28;20079;-79
2023/06/16 12:37:03;;;;;;;1.23;1.13;;;31.90;46.60;;;;;;5058385;28;20094;-79
2023/06/16 12:39:29;;;;;;;0.50;0.50;;;32.00;46.60;;;;;;5055885;28;20036;-78
2023/06/16 12:42:02;;;;;;;1.55;0.95;;;32.10;46.90;;;;;;5057640;28;20044;-82
2023/06/16 12:44:46;;;;;;;2.15;1.38;;;32.20;45.20;;;;;;5058731;28;20044;-80
2023/06/16 12:47:19;;;;;;;0.60;0.60;;;32.10;46.20;;;;;;5053393;28;20043;-79
2023/06/16 12:49:45;;;;;;;0.65;0.55;;;32.20;46.90;;;;;;5061613;28;20071;-79